AB99 UUEE-UWGG
Flight info
| Callsign | AB99 |
|---|---|
| Flight time | 0h 40m |
| Altitude | 35000 |
| Route | KOGOM3F KOGOM L94 USTOK USTOK2P |
| Aircraft | C750/M-SBDE3FGHRWXY/S |
Departure
| Time | 2026-05-09 11:41 |
|---|---|
| Airport | Sheremetyevo International Airport (UUEE) |
Arrival
| Time | 2026-05-09 12:22 |
|---|---|
| Airport | Nizhny Novgorod / Strigino International Airport (UWGG) |
| Time | Latitude | Longitude | Altitude | Speed | Heading |
|---|---|---|---|---|---|
| 2026-05-09 11:04 | 55.98193 | 37.44062 | 622 ft | 0 kts | 140° |
| 2026-05-09 11:33 | 55.98188 | 37.44081 | 622 ft | 1 kts | 95° |
| 2026-05-09 11:34 | 55.98192 | 37.44093 | 622 ft | 1 kts | 46° |
| 2026-05-09 11:34 | 55.98198 | 37.44098 | 622 ft | 0 kts | 355° |
| 2026-05-09 11:35 | 55.98206 | 37.44097 | 622 ft | 1 kts | 343° |
| 2026-05-09 11:35 | 55.98212 | 37.44074 | 622 ft | 4 kts | 274° |
| 2026-05-09 11:35 | 55.98188 | 37.44006 | 622 ft | 7 kts | 226° |
| 2026-05-09 11:35 | 55.98138 | 37.43952 | 621 ft | 9 kts | 181° |
| 2026-05-09 11:36 | 55.98072 | 37.43908 | 620 ft | 11 kts | 229° |
| 2026-05-09 11:36 | 55.98039 | 37.43746 | 617 ft | 17 kts | 254° |
| 2026-05-09 11:36 | 55.98005 | 37.43527 | 614 ft | 19 kts | 255° |
| 2026-05-09 11:36 | 55.97967 | 37.43272 | 611 ft | 22 kts | 255° |
| 2026-05-09 11:37 | 55.97925 | 37.42989 | 607 ft | 24 kts | 255° |
| 2026-05-09 11:37 | 55.97888 | 37.42777 | 609 ft | 11 kts | 227° |
| 2026-05-09 11:37 | 55.97809 | 37.42757 | 607 ft | 12 kts | 166° |
| 2026-05-09 11:37 | 55.97749 | 37.42661 | 607 ft | 14 kts | 254° |
| 2026-05-09 11:38 | 55.97719 | 37.42459 | 609 ft | 20 kts | 255° |
| 2026-05-09 11:38 | 55.97677 | 37.42180 | 611 ft | 26 kts | 254° |
| 2026-05-09 11:38 | 55.97628 | 37.41849 | 615 ft | 28 kts | 256° |
| 2026-05-09 11:38 | 55.97579 | 37.41525 | 620 ft | 26 kts | 254° |
| 2026-05-09 11:39 | 55.97539 | 37.41259 | 620 ft | 12 kts | 255° |
| 2026-05-09 11:39 | 55.97493 | 37.41186 | 620 ft | 8 kts | 166° |
| 2026-05-09 11:39 | 55.97439 | 37.41215 | 620 ft | 7 kts | 166° |
| 2026-05-09 11:40 | 55.97380 | 37.41364 | 619 ft | 0 kts | 74° |
| 2026-05-09 11:40 | 55.97381 | 37.41371 | 619 ft | 4 kts | 74° |
| 2026-05-09 11:40 | 55.97413 | 37.41584 | 615 ft | 45 kts | 75° |
| 2026-05-09 11:41 | 55.97600 | 37.42790 | 621 ft | 148 kts | 76° |
| 2026-05-09 11:41 | 55.97897 | 37.44767 | 1344 ft | 177 kts | 76° |
| 2026-05-09 11:41 | 55.98206 | 37.46830 | 2377 ft | 174 kts | 75° |
| 2026-05-09 11:41 | 55.98524 | 37.48904 | 3185 ft | 181 kts | 75° |
| 2026-05-09 11:42 | 55.98837 | 37.51100 | 3967 ft | 193 kts | 77° |
| 2026-05-09 11:42 | 55.98937 | 37.53534 | 4684 ft | 210 kts | 93° |
| 2026-05-09 11:42 | 55.98569 | 37.56130 | 5591 ft | 218 kts | 110° |
| 2026-05-09 11:42 | 55.97762 | 37.58370 | 6610 ft | 221 kts | 124° |
| 2026-05-09 11:43 | 55.96868 | 37.60521 | 7613 ft | 219 kts | 122° |
| 2026-05-09 11:43 | 55.96292 | 37.61964 | 8344 ft | 215 kts | 123° |
| 2026-05-09 11:43 | 55.95115 | 37.64735 | 9416 ft | 223 kts | 125° |
| 2026-05-09 11:43 | 55.94157 | 37.67023 | 9831 ft | 246 kts | 126° |
| 2026-05-09 11:44 | 55.93205 | 37.69310 | 10422 ft | 258 kts | 126° |
| 2026-05-09 11:44 | 55.92114 | 37.71994 | 10752 ft | 283 kts | 126° |
| 2026-05-09 11:44 | 55.90924 | 37.74974 | 11337 ft | 300 kts | 126° |
| 2026-05-09 11:44 | 55.89704 | 37.78094 | 12223 ft | 306 kts | 126° |
| 2026-05-09 11:45 | 55.88521 | 37.81188 | 13157 ft | 308 kts | 126° |
| 2026-05-09 11:45 | 55.87333 | 37.84344 | 14014 ft | 312 kts | 126° |
| 2026-05-09 11:45 | 55.86111 | 37.87632 | 14571 ft | 327 kts | 126° |
| 2026-05-09 11:45 | 55.84816 | 37.91122 | 15279 ft | 335 kts | 126° |
| 2026-05-09 11:46 | 55.83503 | 37.94662 | 15585 ft | 357 kts | 125° |
| 2026-05-09 11:46 | 55.82075 | 37.98495 | 15712 ft | 380 kts | 126° |
| 2026-05-09 11:46 | 55.80576 | 38.02515 | 16205 ft | 392 kts | 125° |
| 2026-05-09 11:46 | 55.79516 | 38.05355 | 16509 ft | 399 kts | 125° |
| 2026-05-09 11:47 | 55.77364 | 38.11099 | 17365 ft | 406 kts | 125° |
| 2026-05-09 11:47 | 55.75719 | 38.15480 | 18003 ft | 411 kts | 125° |
| 2026-05-09 11:47 | 55.74009 | 38.20023 | 18850 ft | 411 kts | 125° |
| 2026-05-09 11:47 | 55.72300 | 38.24554 | 19720 ft | 408 kts | 125° |
| 2026-05-09 11:48 | 55.70565 | 38.28934 | 20590 ft | 405 kts | 130° |
| 2026-05-09 11:48 | 55.68410 | 38.32908 | 21473 ft | 400 kts | 141° |
| 2026-05-09 11:48 | 55.66057 | 38.35992 | 22297 ft | 396 kts | 148° |
| 2026-05-09 11:48 | 55.63797 | 38.39230 | 23113 ft | 397 kts | 137° |
| 2026-05-09 11:49 | 55.61939 | 38.42987 | 23884 ft | 398 kts | 128° |
| 2026-05-09 11:49 | 55.60453 | 38.47180 | 24648 ft | 398 kts | 118° |
| 2026-05-09 11:49 | 55.59366 | 38.51722 | 25395 ft | 398 kts | 109° |
| 2026-05-09 11:49 | 55.58695 | 38.56495 | 26121 ft | 399 kts | 99° |
| 2026-05-09 11:50 | 55.58458 | 38.61514 | 26856 ft | 399 kts | 90° |
| 2026-05-09 11:50 | 55.58683 | 38.66560 | 27568 ft | 399 kts | 82° |
| 2026-05-09 11:50 | 55.59127 | 38.71368 | 28247 ft | 398 kts | 81° |
| 2026-05-09 11:50 | 55.59597 | 38.76262 | 28923 ft | 398 kts | 79° |
| 2026-05-09 11:51 | 55.60343 | 38.80927 | 29553 ft | 398 kts | 69° |
| 2026-05-09 11:51 | 55.61505 | 38.85361 | 30159 ft | 398 kts | 60° |
| 2026-05-09 11:51 | 55.63026 | 38.89379 | 30746 ft | 397 kts | 50° |
| 2026-05-09 11:51 | 55.64900 | 38.92952 | 31325 ft | 395 kts | 40° |
| 2026-05-09 11:52 | 55.66945 | 38.96190 | 31893 ft | 396 kts | 43° |
| 2026-05-09 11:52 | 55.68842 | 38.99815 | 32094 ft | 408 kts | 48° |
| 2026-05-09 11:52 | 55.70671 | 39.03662 | 32263 ft | 418 kts | 49° |
| 2026-05-09 11:52 | 55.72540 | 39.07701 | 32436 ft | 429 kts | 49° |
| 2026-05-09 11:53 | 55.74431 | 39.11819 | 32587 ft | 439 kts | 49° |
| 2026-05-09 11:53 | 55.76383 | 39.16083 | 32755 ft | 448 kts | 49° |
| 2026-05-09 11:53 | 55.78352 | 39.20412 | 32910 ft | 457 kts | 49° |
| 2026-05-09 11:53 | 55.80395 | 39.24905 | 33106 ft | 465 kts | 49° |
| 2026-05-09 11:54 | 55.82456 | 39.29451 | 33416 ft | 470 kts | 49° |
| 2026-05-09 11:54 | 55.84543 | 39.34055 | 33840 ft | 472 kts | 49° |
| 2026-05-09 11:54 | 55.86600 | 39.38604 | 34231 ft | 474 kts | 49° |
| 2026-05-09 11:54 | 55.88683 | 39.43218 | 34511 ft | 479 kts | 49° |
| 2026-05-09 11:55 | 55.90784 | 39.47880 | 34905 ft | 481 kts | 49° |
| 2026-05-09 11:56 | 56.01118 | 39.72912 | 35281 ft | 521 kts | 62° |
| 2026-05-09 11:56 | 56.02815 | 39.78768 | 35277 ft | 529 kts | 62° |
| 2026-05-09 11:57 | 56.06266 | 39.90519 | 35270 ft | 535 kts | 61° |
| 2026-05-09 11:57 | 56.09719 | 40.02316 | 35275 ft | 533 kts | 61° |
| 2026-05-09 11:58 | 56.13152 | 40.14088 | 35273 ft | 530 kts | 60° |
| 2026-05-09 11:58 | 56.15976 | 40.23809 | 35272 ft | 527 kts | 60° |
| 2026-05-09 11:59 | 56.19913 | 40.37439 | 35274 ft | 525 kts | 60° |
| 2026-05-09 11:59 | 56.23210 | 40.49050 | 35270 ft | 524 kts | 63° |
| 2026-05-09 12:00 | 56.25411 | 40.61575 | 35278 ft | 524 kts | 78° |
| 2026-05-09 12:00 | 56.26167 | 40.74588 | 35280 ft | 523 kts | 91° |
| 2026-05-09 12:01 | 56.25356 | 40.87502 | 35277 ft | 521 kts | 98° |
| 2026-05-09 12:01 | 56.24710 | 41.00487 | 35281 ft | 520 kts | 95° |
| 2026-05-09 12:02 | 56.24153 | 41.13400 | 35280 ft | 520 kts | 95° |
| 2026-05-09 12:02 | 56.23681 | 41.24130 | 35171 ft | 523 kts | 95° |
| 2026-05-09 12:02 | 56.23297 | 41.32700 | 34352 ft | 505 kts | 95° |
| 2026-05-09 12:03 | 56.23021 | 41.38849 | 33705 ft | 488 kts | 95° |
| 2026-05-09 12:03 | 56.22744 | 41.44856 | 33092 ft | 474 kts | 94° |
| 2026-05-09 12:03 | 56.22475 | 41.50655 | 32500 ft | 462 kts | 94° |
| 2026-05-09 12:03 | 56.22210 | 41.56361 | 31922 ft | 450 kts | 94° |
| 2026-05-09 12:04 | 56.21949 | 41.61874 | 31380 ft | 442 kts | 94° |
| 2026-05-09 12:04 | 56.21685 | 41.67419 | 30852 ft | 438 kts | 95° |
| 2026-05-09 12:04 | 56.21426 | 41.72784 | 30333 ft | 436 kts | 95° |
| 2026-05-09 12:04 | 56.21164 | 41.78190 | 29800 ft | 436 kts | 95° |
| 2026-05-09 12:05 | 56.20899 | 41.83619 | 29222 ft | 440 kts | 95° |
| 2026-05-09 12:05 | 56.20627 | 41.89127 | 28563 ft | 444 kts | 95° |
| 2026-05-09 12:05 | 56.20351 | 41.94632 | 27876 ft | 448 kts | 95° |
| 2026-05-09 12:05 | 56.20070 | 42.00201 | 27228 ft | 450 kts | 94° |
| 2026-05-09 12:06 | 56.19788 | 42.05761 | 26653 ft | 447 kts | 95° |
| 2026-05-09 12:06 | 56.19510 | 42.11270 | 26127 ft | 442 kts | 95° |
| 2026-05-09 12:06 | 56.19214 | 42.16761 | 25594 ft | 434 kts | 95° |
| 2026-05-09 12:06 | 56.18930 | 42.22088 | 25034 ft | 427 kts | 94° |
| 2026-05-09 12:07 | 56.18645 | 42.27360 | 24421 ft | 423 kts | 94° |
| 2026-05-09 12:07 | 56.18361 | 42.32569 | 23784 ft | 420 kts | 94° |
| 2026-05-09 12:07 | 56.18074 | 42.37822 | 23152 ft | 417 kts | 94° |
| 2026-05-09 12:07 | 56.17791 | 42.42954 | 22550 ft | 413 kts | 94° |
| 2026-05-09 12:08 | 56.17506 | 42.48071 | 21952 ft | 410 kts | 94° |
| 2026-05-09 12:08 | 56.17313 | 42.51497 | 21553 ft | 408 kts | 94° |
| 2026-05-09 12:08 | 56.16933 | 42.58264 | 20747 ft | 404 kts | 94° |
| 2026-05-09 12:08 | 56.16650 | 42.63239 | 20147 ft | 401 kts | 94° |
| 2026-05-09 12:09 | 56.16367 | 42.68191 | 19544 ft | 398 kts | 94° |
| 2026-05-09 12:09 | 56.16085 | 42.73083 | 18947 ft | 395 kts | 94° |
| 2026-05-09 12:09 | 56.15799 | 42.77978 | 18351 ft | 390 kts | 94° |
| 2026-05-09 12:10 | 56.14962 | 42.92202 | 16571 ft | 378 kts | 94° |
| 2026-05-09 12:10 | 56.14684 | 42.96870 | 15976 ft | 372 kts | 94° |
| 2026-05-09 12:10 | 56.14409 | 43.01434 | 15385 ft | 367 kts | 94° |
| 2026-05-09 12:11 | 56.14136 | 43.05963 | 14785 ft | 363 kts | 94° |
| 2026-05-09 12:11 | 56.13865 | 43.10401 | 14185 ft | 360 kts | 93° |
| 2026-05-09 12:11 | 56.13513 | 43.14812 | 13569 ft | 359 kts | 99° |
| 2026-05-09 12:11 | 56.12761 | 43.19094 | 12939 ft | 358 kts | 110° |
| 2026-05-09 12:12 | 56.11644 | 43.23049 | 12222 ft | 359 kts | 117° |
| 2026-05-09 12:12 | 56.10321 | 43.26784 | 11525 ft | 349 kts | 126° |
| 2026-05-09 12:12 | 56.08694 | 43.29953 | 10833 ft | 340 kts | 137° |
| 2026-05-09 12:12 | 56.06830 | 43.32449 | 10189 ft | 329 kts | 148° |
| 2026-05-09 12:13 | 56.04965 | 43.34577 | 10034 ft | 304 kts | 142° |
| 2026-05-09 12:13 | 56.03419 | 43.36856 | 9957 ft | 291 kts | 139° |
| 2026-05-09 12:13 | 56.02405 | 43.38383 | 9783 ft | 295 kts | 139° |
| 2026-05-09 12:13 | 56.00850 | 43.40763 | 9132 ft | 293 kts | 137° |
| 2026-05-09 12:14 | 55.99043 | 43.44311 | 8296 ft | 286 kts | 121° |
| 2026-05-09 12:14 | 55.98101 | 43.47385 | 7606 ft | 281 kts | 110° |
| 2026-05-09 12:14 | 55.97542 | 43.50645 | 6941 ft | 275 kts | 98° |
| 2026-05-09 12:14 | 55.97257 | 43.54005 | 6238 ft | 270 kts | 98° |
| 2026-05-09 12:15 | 55.96978 | 43.57325 | 5561 ft | 257 kts | 89° |
| 2026-05-09 12:15 | 55.97138 | 43.60490 | 4955 ft | 243 kts | 74° |
| 2026-05-09 12:15 | 55.97697 | 43.63242 | 4426 ft | 231 kts | 60° |
| 2026-05-09 12:15 | 55.98595 | 43.65516 | 3979 ft | 222 kts | 46° |
| 2026-05-09 12:16 | 55.99768 | 43.67181 | 3844 ft | 208 kts | 32° |
| 2026-05-09 12:16 | 56.00733 | 43.68514 | 3774 ft | 206 kts | 45° |
| 2026-05-09 12:16 | 56.01552 | 43.70430 | 3712 ft | 206 kts | 59° |
| 2026-05-09 12:16 | 56.02221 | 43.72699 | 3639 ft | 204 kts | 54° |
| 2026-05-09 12:17 | 56.03162 | 43.74523 | 3590 ft | 198 kts | 38° |
| 2026-05-09 12:17 | 56.04340 | 43.75695 | 3518 ft | 193 kts | 18° |
| 2026-05-09 12:17 | 56.05692 | 43.75787 | 3230 ft | 200 kts | 354° |
| 2026-05-09 12:17 | 56.07054 | 43.75403 | 3034 ft | 197 kts | 353° |
| 2026-05-09 12:18 | 56.08403 | 43.75001 | 2859 ft | 194 kts | 353° |
| 2026-05-09 12:18 | 56.09759 | 43.74650 | 2567 ft | 196 kts | 356° |
| 2026-05-09 12:18 | 56.11096 | 43.74536 | 2382 ft | 184 kts | 3° |
| 2026-05-09 12:18 | 56.12304 | 43.74675 | 2187 ft | 167 kts | 9° |
| 2026-05-09 12:19 | 56.13416 | 43.75011 | 2025 ft | 155 kts | 11° |
| 2026-05-09 12:19 | 56.14455 | 43.75354 | 1821 ft | 149 kts | 13° |
| 2026-05-09 12:19 | 56.15451 | 43.75727 | 1603 ft | 140 kts | 14° |
| 2026-05-09 12:19 | 56.16364 | 43.76125 | 1407 ft | 131 kts | 16° |
| 2026-05-09 12:20 | 56.17237 | 43.76452 | 1186 ft | 126 kts | 12° |
| 2026-05-09 12:20 | 56.18083 | 43.76761 | 994 ft | 122 kts | 10° |
| 2026-05-09 12:20 | 56.18906 | 43.77084 | 815 ft | 122 kts | 12° |
| 2026-05-09 12:20 | 56.19715 | 43.77379 | 643 ft | 117 kts | 14° |
| 2026-05-09 12:21 | 56.20526 | 43.77661 | 472 ft | 118 kts | 12° |
| 2026-05-09 12:21 | 56.21319 | 43.77963 | 332 ft | 116 kts | 15° |
| 2026-05-09 12:21 | 56.22104 | 43.78253 | 252 ft | 107 kts | 8° |
| 2026-05-09 12:21 | 56.22724 | 43.78479 | 248 ft | 74 kts | 12° |
| 2026-05-09 12:22 | 56.23116 | 43.78622 | 249 ft | 49 kts | 11° |
| 2026-05-09 12:22 | 56.23409 | 43.78729 | 248 ft | 33 kts | 12° |
| 2026-05-09 12:22 | 56.23547 | 43.78794 | 247 ft | 14 kts | 33° |
| 2026-05-09 12:22 | 56.23582 | 43.78891 | 247 ft | 9 kts | 93° |
| 2026-05-09 12:23 | 56.23550 | 43.79017 | 247 ft | 12 kts | 118° |
| 2026-05-09 12:23 | 56.23505 | 43.79157 | 248 ft | 12 kts | 124° |
| 2026-05-09 12:23 | 56.23431 | 43.79203 | 248 ft | 12 kts | 194° |
| 2026-05-09 12:23 | 56.23335 | 43.79164 | 248 ft | 15 kts | 191° |
| 2026-05-09 12:24 | 56.23222 | 43.79121 | 248 ft | 17 kts | 191° |
| 2026-05-09 12:24 | 56.23090 | 43.79074 | 248 ft | 20 kts | 191° |
| 2026-05-09 12:24 | 56.22958 | 43.79027 | 248 ft | 13 kts | 192° |
| 2026-05-09 12:24 | 56.22939 | 43.79020 | 248 ft | 0 kts | 191° |
| 2026-05-09 12:25 | 56.22938 | 43.79019 | 248 ft | 1 kts | 190° |
| 2026-05-09 12:25 | 56.22903 | 43.79050 | 249 ft | 9 kts | 136° |
| 2026-05-09 12:25 | 56.22845 | 43.79084 | 250 ft | 4 kts | 189° |
| 2026-05-09 12:26 | 56.22838 | 43.79082 | 250 ft | 0 kts | 191° |